Time;durP1;ratioP1;P1;durP2;ratioP2;P2;SDS_P1;SDS_P2;PMS_P1;PMS_P2;Temp;Humidity;BMP_temperature;BMP_pressure;BME280_temperature;BME280_humidity;BME280_pressure;Samples;Min_cycle;Max_cycle;Signal;HPM_P1;HPM_P2
2023/01/27 00:02:23;;;;;;;11.80;10.98;;;;;;;;;;4994133;28;20555;-49
2023/01/27 00:04:48;;;;;;;13.10;10.93;;;;;;;;;;4995392;28;20095;-47
2023/01/27 00:07:14;;;;;;;11.05;10.35;;;;;;;;;;4993597;28;20026;-52
2023/01/27 00:09:40;;;;;;;12.10;11.18;;;;;;;;;;4993753;28;20555;-49
2023/01/27 00:14:54;;;;;;;11.27;10.48;;;;;;;;;;4997202;28;20047;-50
2023/01/27 00:17:19;;;;;;;10.35;9.75;;;;;;;;;;4993737;28;20042;-51
2023/01/27 00:19:45;;;;;;;12.27;11.48;;;;;;;;;;4994369;28;20096;-49
2023/01/27 00:24:54;;;;;;;12.80;11.65;;;;;;;;;;4995021;28;20030;-47
2023/01/27 00:27:19;;;;;;;12.23;11.38;;;;;;;;;;4995446;28;20038;-52
2023/01/27 00:29:44;;;;;;;14.05;12.93;;;;;;;;;;4995811;28;20073;-48
2023/01/27 00:34:54;;;;;;;12.52;11.52;;;;;;;;;;4999030;28;20037;-47
2023/01/27 00:37:19;;;;;;;11.98;11.18;;;;;;;;;;4991652;28;20550;-49
2023/01/27 00:39:45;;;;;;;13.32;12.43;;;;;;;;;;4997000;28;20038;-47
2023/01/27 00:42:10;;;;;;;10.85;10.02;;;;;;;;;;4992862;28;20086;-47
2023/01/27 00:44:35;;;;;;;12.15;11.35;;;;;;;;;;5000950;28;20039;-48
2023/01/27 00:47:01;;;;;;;12.32;11.50;;;;;;;;;;4995669;28;20042;-49
2023/01/27 00:49:26;;;;;;;11.43;10.63;;;;;;;;;;4994610;28;20088;-49
2023/01/27 00:51:51;;;;;;;11.82;11.02;;;;;;;;;;4995506;28;20034;-49
2023/01/27 00:54:17;;;;;;;11.38;10.57;;;;;;;;;;5000019;28;20046;-49
2023/01/27 00:56:43;;;;;;;12.25;11.18;;;;;;;;;;4999422;28;20353;-50
2023/01/27 00:59:08;;;;;;;11.63;10.82;;;;;;;;;;4999935;28;20037;-50
2023/01/27 01:01:34;;;;;;;11.15;10.35;;;;;;;;;;4997605;28;20042;-47
2023/01/27 01:04:00;;;;;;;11.10;10.30;;;;;;;;;;4998014;28;20050;-46
2023/01/27 01:06:26;;;;;;;11.88;10.85;;;;;;;;;;4998309;28;20069;-50
2023/01/27 01:08:52;;;;;;;11.82;11.05;;;;;;;;;;4997918;28;20110;-60
2023/01/27 01:11:20;;;;;;;10.60;9.90;;;;;;;;;;4999215;28;20056;-59
2023/01/27 01:13:46;;;;;;;11.65;10.57;;;;;;;;;;4998511;28;20038;-59
2023/01/27 01:16:20;;;;;;;13.18;12.10;;;;;;;;;;4997742;28;20030;-59
2023/01/27 01:18:46;;;;;;;11.55;10.75;;;;;;;;;;5005210;28;20042;-60
2023/01/27 01:21:12;;;;;;;12.45;11.45;;;;;;;;;;4996527;28;20372;-59
2023/01/27 01:23:40;;;;;;;12.85;11.90;;;;;;;;;;4998931;28;20041;-48
2023/01/27 01:26:06;;;;;;;11.88;11.07;;;;;;;;;;4996665;28;20035;-49
2023/01/27 01:28:31;;;;;;;12.18;11.38;;;;;;;;;;5005147;28;20142;-59
2023/01/27 01:31:13;;;;;;;13.27;12.27;;;;;;;;;;4997020;28;20046;-59
2023/01/27 01:33:38;;;;;;;12.57;11.77;;;;;;;;;;4997313;28;20042;-59
2023/01/27 01:36:06;;;;;;;12.27;11.45;;;;;;;;;;4998557;28;20428;-59
2023/01/27 01:38:32;;;;;;;12.68;11.77;;;;;;;;;;5005088;28;20042;-58
2023/01/27 01:40:57;;;;;;;11.63;10.82;;;;;;;;;;4996242;28;20396;-59
2023/01/27 01:43:25;;;;;;;12.82;11.93;;;;;;;;;;4998220;28;20033;-59
2023/01/27 01:45:51;;;;;;;12.23;11.43;;;;;;;;;;4997038;28;20038;-59
2023/01/27 01:48:32;;;;;;;12.90;12.00;;;;;;;;;;4999928;28;20038;-51
2023/01/27 01:51:07;;;;;;;14.10;12.93;;;;;;;;;;4999758;28;20176;-60
2023/01/27 01:53:39;;;;;;;10.80;10.10;;;;;;;;;;5012130;28;20034;-59
2023/01/27 01:56:15;;;;;;;13.50;12.52;;;;;;;;;;5003465;28;20502;-60
2023/01/27 01:58:43;;;;;;;13.65;12.75;;;;;;;;;;4994860;28;20069;-59
2023/01/27 02:01:09;;;;;;;12.52;11.63;;;;;;;;;;5004280;28;20136;-60
2023/01/27 02:03:39;;;;;;;12.98;12.18;;;;;;;;;;4994437;28;20068;-48
2023/01/27 02:06:05;;;;;;;12.75;11.80;;;;;;;;;;4997932;28;20034;-58
2023/01/27 02:08:37;;;;;;;13.32;12.27;;;;;;;;;;4988384;28;20038;-60
2023/01/27 02:11:02;;;;;;;12.82;11.93;;;;;;;;;;5000256;28;20045;-48
2023/01/27 02:13:27;;;;;;;12.85;11.93;;;;;;;;;;5002567;28;20060;-48
2023/01/27 02:15:54;;;;;;;14.88;13.60;;;;;;;;;;4996560;28;20026;-47
2023/01/27 02:18:20;;;;;;;12.45;11.52;;;;;;;;;;4996345;28;20092;-59
2023/01/27 02:20:48;;;;;;;14.65;13.20;;;;;;;;;;4995925;28;20443;-48
2023/01/27 02:23:20;;;;;;;13.52;12.45;;;;;;;;;;4994830;28;20049;-59
2023/01/27 02:25:57;;;;;;;13.25;12.13;;;;;;;;;;4998706;28;20030;-59
2023/01/27 02:28:26;;;;;;;12.88;11.82;;;;;;;;;;4994055;28;20041;-47
2023/01/27 02:30:52;;;;;;;11.95;11.15;;;;;;;;;;4995489;28;20050;-48
2023/01/27 02:33:17;;;;;;;13.70;12.75;;;;;;;;;;4998622;28;20044;-60
2023/01/27 02:35:42;;;;;;;12.48;11.68;;;;;;;;;;4996554;28;20026;-60
2023/01/27 02:38:10;;;;;;;15.20;13.30;;;;;;;;;;4998104;28;20367;-60
2023/01/27 02:40:36;;;;;;;13.23;12.23;;;;;;;;;;5000051;28;20037;-59
2023/01/27 02:43:03;;;;;;;13.68;12.68;;;;;;;;;;4987490;28;20432;-60
2023/01/27 02:45:29;;;;;;;14.23;13.13;;;;;;;;;;4997759;28;20590;-59
2023/01/27 02:47:54;;;;;;;12.45;11.65;;;;;;;;;;4997985;28;20133;-59
2023/01/27 02:50:20;;;;;;;12.15;11.35;;;;;;;;;;4996535;28;20053;-52
2023/01/27 02:52:45;;;;;;;12.88;11.98;;;;;;;;;;4994846;28;20120;-60
2023/01/27 02:55:10;;;;;;;12.55;11.75;;;;;;;;;;4998266;28;20108;-59
2023/01/27 02:57:36;;;;;;;13.05;12.15;;;;;;;;;;4994527;28;20113;-49
2023/01/27 03:00:02;;;;;;;12.63;11.80;;;;;;;;;;4995741;28;20369;-50
2023/01/27 03:02:29;;;;;;;17.55;13.82;;;;;;;;;;4995166;28;20146;-50
2023/01/27 03:04:57;;;;;;;13.10;11.95;;;;;;;;;;4996624;28;20037;-52
2023/01/27 03:07:23;;;;;;;13.25;12.35;;;;;;;;;;5020072;28;20088;-51
2023/01/27 03:09:49;;;;;;;13.43;12.32;;;;;;;;;;4996885;28;20553;-51
2023/01/27 03:12:20;;;;;;;12.70;11.80;;;;;;;;;;4994321;28;20069;-59
2023/01/27 03:20:19;;;;;;;13.43;11.10;;;;;;;;;;4995455;28;20489;-59
2023/01/27 03:22:44;;;;;;;12.82;11.93;;;;;;;;;;4995781;28;20177;-59
2023/01/27 03:25:10;;;;;;;13.48;12.65;;;;;;;;;;4995922;28;20046;-50
2023/01/27 03:27:36;;;;;;;13.75;12.75;;;;;;;;;;4999697;28;20515;-50
2023/01/27 03:30:02;;;;;;;13.25;12.32;;;;;;;;;;4995815;28;20038;-60
2023/01/27 03:32:30;;;;;;;12.57;11.75;;;;;;;;;;4992382;28;20050;-59
2023/01/27 03:34:59;;;;;;;12.55;11.75;;;;;;;;;;4994483;28;20037;-60
2023/01/27 03:48:23;;;;;;;10.73;10.02;;;;;;;;;;4995631;28;20041;-59
2023/01/27 03:50:52;;;;;;;11.10;10.40;;;;;;;;;;4997158;28;20104;-59
2023/01/27 03:53:20;;;;;;;11.00;10.30;;;;;;;;;;4997527;28;21017;-48
2023/01/27 03:55:46;;;;;;;12.48;11.68;;;;;;;;;;4983524;28;20054;-49
2023/01/27 03:58:24;;;;;;;12.75;11.85;;;;;;;;;;4992356;28;20026;-48
2023/01/27 04:00:57;;;;;;;11.15;10.45;;;;;;;;;;4995997;28;20038;-60
2023/01/27 04:08:56;;;;;;;11.88;11.07;;;;;;;;;;4994691;28;20042;-60
2023/01/27 04:14:07;;;;;;;11.38;10.68;;;;;;;;;;5000010;28;20050;-59
2023/01/27 04:16:35;;;;;;;14.15;10.95;;;;;;;;;;5003134;28;20108;-59
2023/01/27 04:19:02;;;;;;;12.85;12.00;;;;;;;;;;4995371;28;20089;-59
2023/01/27 04:21:27;;;;;;;12.52;11.52;;;;;;;;;;4993494;28;20103;-60
2023/01/27 04:23:53;;;;;;;11.68;10.98;;;;;;;;;;4994469;28;20030;-59
2023/01/27 04:26:18;;;;;;;12.23;11.43;;;;;;;;;;4993847;28;21589;-60
2023/01/27 04:28:45;;;;;;;12.95;11.82;;;;;;;;;;4996151;28;20026;-59
2023/01/27 04:31:10;;;;;;;11.93;11.02;;;;;;;;;;4990372;28;20040;-60
2023/01/27 04:33:35;;;;;;;12.25;11.23;;;;;;;;;;4996799;28;20042;-48
2023/01/27 04:36:01;;;;;;;11.45;10.70;;;;;;;;;;4994631;28;20048;-48
2023/01/27 04:38:26;;;;;;;11.55;10.85;;;;;;;;;;4992390;28;20062;-59
2023/01/27 04:40:51;;;;;;;12.10;11.23;;;;;;;;;;4990338;28;20034;-48
2023/01/27 04:43:17;;;;;;;11.88;11.07;;;;;;;;;;4994022;28;20031;-49
2023/01/27 04:45:42;;;;;;;11.40;10.52;;;;;;;;;;4996730;28;20500;-49
2023/01/27 04:48:08;;;;;;;11.77;11.02;;;;;;;;;;4996749;28;20064;-59
2023/01/27 04:50:33;;;;;;;10.98;10.27;;;;;;;;;;4984163;28;20091;-60
2023/01/27 04:52:59;;;;;;;11.82;11.00;;;;;;;;;;4995243;28;20038;-59
2023/01/27 04:55:24;;;;;;;11.77;10.98;;;;;;;;;;5001121;28;20721;-49
2023/01/27 04:57:50;;;;;;;11.02;10.32;;;;;;;;;;4994929;28;20121;-48
2023/01/27 05:00:16;;;;;;;10.98;10.27;;;;;;;;;;4996803;28;20062;-59
2023/01/27 05:02:41;;;;;;;10.75;10.10;;;;;;;;;;4992343;28;20031;-46
2023/01/27 05:05:07;;;;;;;10.50;9.88;;;;;;;;;;4994376;28;20062;-60
2023/01/27 05:07:32;;;;;;;11.40;10.63;;;;;;;;;;4992128;28;20040;-48
2023/01/27 05:09:58;;;;;;;10.55;9.85;;;;;;;;;;4994475;28;20047;-60
2023/01/27 05:12:23;;;;;;;11.98;11.18;;;;;;;;;;4995832;28;20420;-49
2023/01/27 05:14:49;;;;;;;12.63;11.73;;;;;;;;;;5000216;28;20129;-50
2023/01/27 05:17:14;;;;;;;12.05;11.35;;;;;;;;;;4994895;28;20034;-48
2023/01/27 05:19:39;;;;;;;12.20;11.40;;;;;;;;;;4994295;28;20105;-48
2023/01/27 05:22:05;;;;;;;11.30;10.60;;;;;;;;;;4999839;28;20034;-49
2023/01/27 05:24:30;;;;;;;11.73;10.88;;;;;;;;;;4998467;28;20035;-51
2023/01/27 05:26:56;;;;;;;12.38;11.57;;;;;;;;;;4996761;28;20038;-52
2023/01/27 05:29:22;;;;;;;11.60;10.90;;;;;;;;;;4995134;28;20038;-49
2023/01/27 05:31:47;;;;;;;11.77;10.98;;;;;;;;;;4992847;28;20431;-58
2023/01/27 05:34:13;;;;;;;11.48;10.77;;;;;;;;;;4997434;28;20031;-48
2023/01/27 05:36:38;;;;;;;14.55;13.55;;;;;;;;;;4994349;28;20134;-58
2023/01/27 05:39:04;;;;;;;13.02;12.13;;;;;;;;;;4994198;28;20033;-48
2023/01/27 05:41:33;;;;;;;11.93;11.13;;;;;;;;;;5005167;28;20040;-60
2023/01/27 05:43:59;;;;;;;12.65;11.85;;;;;;;;;;4997400;28;20723;-52
2023/01/27 05:46:26;;;;;;;12.68;11.88;;;;;;;;;;5002020;28;20352;-49
2023/01/27 05:48:54;;;;;;;11.68;10.98;;;;;;;;;;5000812;28;20061;-49
2023/01/27 05:51:22;;;;;;;11.85;11.10;;;;;;;;;;4998388;28;20076;-52
2023/01/27 05:53:48;;;;;;;11.88;11.10;;;;;;;;;;4996660;28;20117;-50
2023/01/27 05:56:16;;;;;;;13.13;12.18;;;;;;;;;;4999044;28;20116;-48
2023/01/27 05:58:42;;;;;;;12.05;11.35;;;;;;;;;;4998922;28;20038;-60
2023/01/27 06:01:17;;;;;;;13.25;12.45;;;;;;;;;;4999745;28;20945;-50
2023/01/27 06:03:43;;;;;;;12.52;11.73;;;;;;;;;;4994727;28;20077;-49
2023/01/27 06:06:09;;;;;;;11.57;10.88;;;;;;;;;;4997243;28;20303;-48
2023/01/27 06:08:36;;;;;;;12.93;11.63;;;;;;;;;;4999262;28;20555;-60
2023/01/27 06:11:02;;;;;;;12.00;11.30;;;;;;;;;;4998910;28;20038;-60
2023/01/27 06:13:28;;;;;;;11.82;11.13;;;;;;;;;;4983828;28;20033;-60
2023/01/27 06:15:56;;;;;;;12.13;11.32;;;;;;;;;;4998601;28;20022;-60
2023/01/27 06:18:22;;;;;;;12.05;11.25;;;;;;;;;;5001025;28;20037;-60
2023/01/27 06:20:47;;;;;;;12.52;11.70;;;;;;;;;;4997407;28;20100;-60
2023/01/27 06:23:15;;;;;;;12.75;11.95;;;;;;;;;;4997740;28;20026;-60
2023/01/27 06:25:46;;;;;;;11.70;11.00;;;;;;;;;;4996140;28;20173;-59
2023/01/27 06:28:12;;;;;;;11.55;10.85;;;;;;;;;;4996702;28;20104;-60
2023/01/27 06:30:38;;;;;;;15.48;14.27;;;;;;;;;;4995563;28;20055;-60
2023/01/27 06:33:05;;;;;;;13.57;12.52;;;;;;;;;;4997360;28;20034;-60
2023/01/27 06:35:32;;;;;;;12.80;12.00;;;;;;;;;;4996006;28;20458;-59
2023/01/27 06:37:58;;;;;;;12.00;11.18;;;;;;;;;;4996787;28;20473;-59
2023/01/27 06:40:25;;;;;;;11.32;10.63;;;;;;;;;;4996844;28;20030;-59
2023/01/27 06:42:50;;;;;;;11.45;10.75;;;;;;;;;;4995679;28;20038;-59
2023/01/27 06:45:15;;;;;;;11.55;10.55;;;;;;;;;;4996210;28;20057;-59
2023/01/27 06:47:41;;;;;;;10.98;10.27;;;;;;;;;;4994654;28;20576;-59
2023/01/27 06:50:08;;;;;;;11.15;10.45;;;;;;;;;;5001260;28;20030;-59
2023/01/27 06:52:34;;;;;;;10.77;10.07;;;;;;;;;;4996687;28;20054;-59
2023/01/27 06:54:59;;;;;;;11.00;10.30;;;;;;;;;;5000231;28;20034;-59
2023/01/27 06:57:25;;;;;;;10.63;9.90;;;;;;;;;;4995406;28;20030;-58
2023/01/27 06:59:50;;;;;;;11.20;10.50;;;;;;;;;;4995007;28;20175;-59
2023/01/27 07:02:16;;;;;;;11.45;10.75;;;;;;;;;;4996581;28;20095;-59
2023/01/27 07:04:41;;;;;;;11.38;10.68;;;;;;;;;;4994640;28;20099;-59
2023/01/27 07:07:07;;;;;;;11.48;10.77;;;;;;;;;;4998734;28;20129;-59
2023/01/27 07:09:32;;;;;;;13.32;12.32;;;;;;;;;;4996156;28;20061;-60
2023/01/27 07:11:57;;;;;;;12.75;11.95;;;;;;;;;;4996123;28;20467;-60
2023/01/27 07:14:23;;;;;;;12.20;11.40;;;;;;;;;;4998430;28;20038;-59
2023/01/27 07:16:48;;;;;;;11.75;11.05;;;;;;;;;;4993928;28;20038;-59
2023/01/27 07:19:15;;;;;;;11.60;10.90;;;;;;;;;;5002598;28;20026;-59
2023/01/27 07:21:40;;;;;;;10.88;10.18;;;;;;;;;;4997690;28;20058;-59
2023/01/27 07:24:06;;;;;;;12.60;11.80;;;;;;;;;;4997376;28;20077;-60
2023/01/27 07:26:31;;;;;;;17.17;11.50;;;;;;;;;;4996950;28;20534;-60
2023/01/27 07:28:57;;;;;;;11.90;11.02;;;;;;;;;;4997653;28;20072;-60
2023/01/27 07:31:22;;;;;;;13.18;12.20;;;;;;;;;;4995377;28;20058;-60
2023/01/27 07:33:48;;;;;;;11.48;10.77;;;;;;;;;;4998363;28;20037;-60
2023/01/27 07:36:13;;;;;;;11.85;11.15;;;;;;;;;;4998719;28;20140;-60
2023/01/27 07:38:39;;;;;;;11.90;11.20;;;;;;;;;;4996450;28;20426;-52
2023/01/27 07:41:05;;;;;;;12.38;11.63;;;;;;;;;;5002924;28;20476;-59
2023/01/27 07:43:31;;;;;;;13.43;12.52;;;;;;;;;;4992856;28;20128;-59
2023/01/27 07:45:57;;;;;;;12.40;11.55;;;;;;;;;;4998636;28;20140;-59
2023/01/27 07:48:22;;;;;;;11.10;10.40;;;;;;;;;;4995972;28;20531;-59
2023/01/27 07:50:48;;;;;;;11.68;10.90;;;;;;;;;;4996272;28;20363;-48
2023/01/27 07:53:13;;;;;;;12.30;11.52;;;;;;;;;;4992862;28;20034;-48
2023/01/27 07:55:38;;;;;;;12.05;11.35;;;;;;;;;;4998127;28;20033;-47
2023/01/27 07:58:04;;;;;;;12.07;11.27;;;;;;;;;;4997186;28;20038;-49
2023/01/27 08:00:30;;;;;;;12.00;11.20;;;;;;;;;;5001345;28;20034;-48
2023/01/27 08:02:57;;;;;;;12.95;11.95;;;;;;;;;;4994386;28;20045;-51
2023/01/27 08:05:23;;;;;;;12.40;11.60;;;;;;;;;;5011586;28;20421;-47
2023/01/27 08:07:49;;;;;;;11.20;10.50;;;;;;;;;;4996143;28;20173;-48
2023/01/27 08:10:17;;;;;;;11.50;10.70;;;;;;;;;;4997888;28;20033;-49
2023/01/27 08:12:43;;;;;;;14.07;13.05;;;;;;;;;;4994847;28;20034;-48
2023/01/27 08:15:09;;;;;;;13.23;12.27;;;;;;;;;;4994220;28;20096;-49
2023/01/27 08:17:34;;;;;;;12.35;11.52;;;;;;;;;;4995209;28;20080;-48
2023/01/27 08:20:00;;;;;;;12.57;11.77;;;;;;;;;;4994505;28;20041;-49
2023/01/27 08:22:27;;;;;;;11.77;10.77;;;;;;;;;;4994663;28;20030;-52
2023/01/27 08:24:52;;;;;;;10.15;9.45;;;;;;;;;;4997687;28;20113;-50
2023/01/27 08:27:18;;;;;;;10.10;9.43;;;;;;;;;;5001152;28;20126;-50
2023/01/27 08:29:43;;;;;;;11.18;10.38;;;;;;;;;;4994138;28;20042;-47
2023/01/27 08:32:09;;;;;;;11.00;10.20;;;;;;;;;;4996325;28;20113;-50
2023/01/27 08:34:35;;;;;;;10.50;9.80;;;;;;;;;;4989974;28;20045;-49
2023/01/27 08:37:01;;;;;;;10.05;9.40;;;;;;;;;;5001453;28;20034;-48
2023/01/27 08:39:26;;;;;;;10.88;10.07;;;;;;;;;;4994381;28;20034;-51
2023/01/27 08:41:52;;;;;;;10.40;9.70;;;;;;;;;;4993366;28;20387;-51
2023/01/27 08:44:18;;;;;;;10.15;9.48;;;;;;;;;;4996432;28;20487;-47
2023/01/27 08:46:43;;;;;;;10.52;9.82;;;;;;;;;;4993723;28;20045;-50
2023/01/27 08:49:09;;;;;;;10.05;9.45;;;;;;;;;;4996666;28;20038;-51
2023/01/27 08:51:34;;;;;;;10.27;9.57;;;;;;;;;;4995400;28;20203;-48
2023/01/27 08:54:00;;;;;;;11.32;10.63;;;;;;;;;;4991852;28;20451;-48
2023/01/27 08:56:25;;;;;;;11.45;10.73;;;;;;;;;;5002155;28;20039;-50
2023/01/27 08:58:51;;;;;;;11.88;10.95;;;;;;;;;;4991489;28;20846;-48
2023/01/27 09:01:18;;;;;;;11.50;10.80;;;;;;;;;;4995903;28;20045;-50
2023/01/27 09:03:44;;;;;;;10.40;9.70;;;;;;;;;;4994841;28;20048;-48
2023/01/27 09:06:11;;;;;;;11.30;10.48;;;;;;;;;;4994084;28;20026;-47
2023/01/27 09:08:38;;;;;;;11.48;10.57;;;;;;;;;;4993981;28;20141;-47
2023/01/27 09:11:11;;;;;;;11.18;10.38;;;;;;;;;;4996177;28;20052;-48
2023/01/27 09:13:36;;;;;;;10.88;10.10;;;;;;;;;;4996714;28;20494;-47
2023/01/27 09:16:02;;;;;;;10.57;9.88;;;;;;;;;;4998273;28;20049;-50
2023/01/27 09:18:27;;;;;;;11.93;10.85;;;;;;;;;;4999021;28;20038;-47
2023/01/27 09:20:53;;;;;;;10.48;9.77;;;;;;;;;;4998836;28;20048;-48
2023/01/27 09:23:18;;;;;;;10.30;9.65;;;;;;;;;;4996635;28;20499;-50
2023/01/27 09:25:44;;;;;;;11.25;10.25;;;;;;;;;;4997079;28;20765;-48
2023/01/27 09:28:15;;;;;;;11.55;10.75;;;;;;;;;;4995079;28;20049;-50
2023/01/27 09:30:42;;;;;;;11.38;10.68;;;;;;;;;;4998568;28;20073;-50
2023/01/27 09:33:08;;;;;;;9.88;9.27;;;;;;;;;;5002333;28;20038;-47
2023/01/27 09:35:50;;;;;;;9.93;9.32;;;;;;;;;;4998761;28;20536;-60
2023/01/27 09:38:20;;;;;;;10.82;10.13;;;;;;;;;;5000681;28;20062;-60
2023/01/27 09:41:03;;;;;;;9.82;9.23;;;;;;;;;;4997922;28;20120;-59
2023/01/27 09:43:52;;;;;;;9.77;9.10;;;;;;;;;;4995122;28;20042;-60
2023/01/27 09:46:56;;;;;;;9.93;9.30;;;;;;;;;;4996912;28;20141;-60
2023/01/27 09:49:39;;;;;;;10.68;9.98;;;;;;;;;;4997364;28;20093;-60
2023/01/27 09:52:29;;;;;;;9.52;8.85;;;;;;;;;;4997336;28;20193;-60
2023/01/27 09:55:00;;;;;;;10.85;9.95;;;;;;;;;;4995407;28;20492;-59
2023/01/27 09:57:46;;;;;;;10.07;9.38;;;;;;;;;;4995758;28;20777;-59
2023/01/27 10:00:27;;;;;;;10.07;9.48;;;;;;;;;;4984374;28;20499;-59
2023/01/27 10:02:58;;;;;;;10.30;9.60;;;;;;;;;;4997461;28;20460;-59
2023/01/27 10:05:38;;;;;;;10.07;9.45;;;;;;;;;;4996591;28;20116;-59
2023/01/27 10:08:34;;;;;;;10.20;9.50;;;;;;;;;;4998650;28;20038;-59
2023/01/27 10:11:27;;;;;;;10.48;9.77;;;;;;;;;;4994985;28;20487;-59
2023/01/27 10:14:18;;;;;;;11.00;10.30;;;;;;;;;;4985671;28;20051;-59
2023/01/27 10:16:58;;;;;;;9.95;9.35;;;;;;;;;;4995595;28;20457;-59
2023/01/27 10:20:00;;;;;;;9.38;8.77;;;;;;;;;;4997920;28;20041;-59
2023/01/27 10:22:35;;;;;;;10.10;9.50;;;;;;;;;;4994124;28;20108;-60
2023/01/27 10:25:32;;;;;;;10.10;9.40;;;;;;;;;;4999755;28;20042;-59
2023/01/27 10:28:01;;;;;;;10.77;10.07;;;;;;;;;;4995742;28;20034;-59
2023/01/27 10:30:27;;;;;;;9.95;9.27;;;;;;;;;;4997111;28;20662;-59
2023/01/27 10:33:17;;;;;;;9.27;8.68;;;;;;;;;;4994211;28;20057;-60
2023/01/27 10:35:42;;;;;;;9.23;8.63;;;;;;;;;;4993461;28;20042;-58
2023/01/27 10:38:42;;;;;;;10.60;9.90;;;;;;;;;;5005183;28;20096;-60
2023/01/27 10:41:22;;;;;;;10.27;9.48;;;;;;;;;;4995555;28;20463;-59
2023/01/27 10:44:14;;;;;;;11.15;10.45;;;;;;;;;;4997148;28;20499;-59
2023/01/27 10:46:46;;;;;;;;;;;;;;;;;;4996527;28;20487;-58
2023/01/27 10:49:22;;;;;;;10.55;9.85;;;;;;;;;;4996798;28;20403;-59
2023/01/27 10:52:19;;;;;;;11.70;10.95;;;;;;;;;;4995589;28;20113;-59
2023/01/27 10:55:14;;;;;;;10.00;9.40;;;;;;;;;;4987833;28;20125;-59
2023/01/27 10:57:59;;;;;;;11.80;11.00;;;;;;;;;;4994434;28;20398;-59
2023/01/27 11:00:36;;;;;;;10.82;10.13;;;;;;;;;;4993996;28;20092;-59
2023/01/27 11:03:01;;;;;;;10.20;9.60;;;;;;;;;;4995503;28;20038;-59
2023/01/27 11:05:34;;;;;;;11.57;10.88;;;;;;;;;;4992906;28;20045;-60
2023/01/27 11:08:13;;;;;;;11.55;10.85;;;;;;;;;;4995191;28;20118;-59
2023/01/27 11:13:32;;;;;;;12.02;11.27;;;;;;;;;;4994668;28;20042;-59
2023/01/27 11:15:59;;;;;;;11.52;10.73;;;;;;;;;;4994747;28;20042;-59
2023/01/27 11:18:27;;;;;;;12.05;11.35;;;;;;;;;;4999009;28;20034;-60
2023/01/27 11:20:56;;;;;;;11.23;10.52;;;;;;;;;;4997590;28;20030;-59
2023/01/27 11:23:39;;;;;;;11.77;11.07;;;;;;;;;;4993281;28;20112;-59
2023/01/27 11:26:37;;;;;;;11.25;10.55;;;;;;;;;;4998728;28;20025;-59
2023/01/27 11:29:19;;;;;;;11.60;10.82;;;;;;;;;;4995941;28;20121;-59
2023/01/27 11:32:07;;;;;;;11.88;10.95;;;;;;;;;;4995061;28;20065;-59
2023/01/27 11:34:57;;;;;;;11.23;10.52;;;;;;;;;;4994219;28;20032;-59
2023/01/27 11:37:32;;;;;;;12.00;11.30;;;;;;;;;;5001540;28;20049;-60
2023/01/27 11:39:58;;;;;;;12.57;11.77;;;;;;;;;;4994017;28;20289;-60
2023/01/27 11:42:30;;;;;;;12.38;11.68;;;;;;;;;;4994941;28;20426;-60
2023/01/27 11:44:56;;;;;;;11.63;10.85;;;;;;;;;;4993344;28;20697;-60
2023/01/27 11:47:30;;;;;;;11.50;10.80;;;;;;;;;;5001789;28;20780;-59
2023/01/27 11:49:56;;;;;;;11.70;11.00;;;;;;;;;;4995873;28;20053;-59
2023/01/27 11:52:26;;;;;;;11.63;10.93;;;;;;;;;;4994082;28;20805;-59
2023/01/27 11:55:10;;;;;;;11.38;10.68;;;;;;;;;;4986696;28;20030;-59
2023/01/27 11:57:40;;;;;;;10.45;9.85;;;;;;;;;;5001784;28;20046;-59
2023/01/27 12:00:18;;;;;;;11.35;10.65;;;;;;;;;;4991967;28;20030;-59
2023/01/27 12:02:53;;;;;;;11.27;10.57;;;;;;;;;;4994067;28;20472;-59
2023/01/27 12:05:27;;;;;;;11.50;10.80;;;;;;;;;;4994990;28;20550;-59
2023/01/27 12:08:00;;;;;;;11.27;10.57;;;;;;;;;;4993076;28;20034;-59
2023/01/27 12:10:38;;;;;;;11.63;10.93;;;;;;;;;;4994613;28;20037;-59
2023/01/27 12:13:23;;;;;;;11.10;10.40;;;;;;;;;;4991748;28;20129;-59
2023/01/27 12:15:59;;;;;;;11.90;11.20;;;;;;;;;;4995457;28;20064;-59
2023/01/27 12:18:25;;;;;;;11.82;11.13;;;;;;;;;;4996868;28;20033;-59
2023/01/27 12:21:00;;;;;;;11.30;10.57;;;;;;;;;;4995744;28;20056;-59
2023/01/27 12:23:30;;;;;;;11.30;10.60;;;;;;;;;;4995000;28;20042;-59
2023/01/27 12:26:00;;;;;;;11.07;10.38;;;;;;;;;;4994901;28;20510;-60
2023/01/27 12:28:44;;;;;;;11.52;10.82;;;;;;;;;;5012629;28;20124;-60
2023/01/27 12:31:12;;;;;;;10.63;10.02;;;;;;;;;;4997953;28;20050;-60
2023/01/27 12:33:45;;;;;;;12.00;11.30;;;;;;;;;;4995221;28;20042;-60
2023/01/27 12:36:12;;;;;;;11.50;10.80;;;;;;;;;;4997276;28;20480;-49
2023/01/27 12:38:45;;;;;;;12.20;11.40;;;;;;;;;;4994076;28;20052;-49
2023/01/27 12:41:11;;;;;;;11.65;10.95;;;;;;;;;;5010401;28;20081;-49
2023/01/27 12:44:14;;;;;;;11.55;10.85;;;;;;;;;;4980594;28;20649;-51
2023/01/27 12:46:56;;;;;;;11.60;10.90;;;;;;;;;;4985324;28;20069;-51
2023/01/27 12:49:29;;;;;;;11.13;10.43;;;;;;;;;;5001014;28;20042;-48
2023/01/27 12:51:54;;;;;;;11.18;10.48;;;;;;;;;;4995928;28;20062;-47
2023/01/27 12:54:21;;;;;;;11.43;10.73;;;;;;;;;;5006128;28;20089;-49
2023/01/27 12:56:53;;;;;;;11.27;10.57;;;;;;;;;;4998251;28;20034;-60
2023/01/27 12:59:22;;;;;;;11.10;10.40;;;;;;;;;;4997623;28;20157;-59
2023/01/27 13:02:02;;;;;;;11.20;10.50;;;;;;;;;;4998470;28;20117;-59
2023/01/27 13:04:28;;;;;;;10.43;9.82;;;;;;;;;;4998105;28;20038;-60
2023/01/27 13:07:00;;;;;;;10.27;9.68;;;;;;;;;;4998814;28;20104;-59
2023/01/27 13:09:37;;;;;;;10.50;9.90;;;;;;;;;;4997292;28;20050;-59
2023/01/27 13:12:19;;;;;;;10.25;9.65;;;;;;;;;;5000760;28;20148;-51
2023/01/27 13:14:52;;;;;;;11.48;10.77;;;;;;;;;;5011050;28;20077;-60
2023/01/27 13:17:35;;;;;;;10.77;10.07;;;;;;;;;;5000059;28;20034;-59
2023/01/27 13:20:07;;;;;;;10.35;9.75;;;;;;;;;;4998881;28;20029;-59
2023/01/27 13:22:40;;;;;;;10.32;9.73;;;;;;;;;;5001292;28;20128;-60
2023/01/27 13:25:15;;;;;;;10.55;9.95;;;;;;;;;;4995630;28;20045;-61
2023/01/27 13:27:40;;;;;;;10.73;10.02;;;;;;;;;;4994062;28;20035;-60
2023/01/27 13:30:19;;;;;;;10.30;9.70;;;;;;;;;;4999023;28;20041;-60
2023/01/27 13:32:48;;;;;;;11.57;10.77;;;;;;;;;;4999400;28;20484;-59
2023/01/27 13:35:24;;;;;;;10.57;9.95;;;;;;;;;;4996521;28;20038;-59
2023/01/27 13:37:59;;;;;;;11.35;10.65;;;;;;;;;;4997964;28;20045;-59
2023/01/27 13:40:38;;;;;;;11.13;10.43;;;;;;;;;;4995167;28;20038;-61
2023/01/27 13:43:13;;;;;;;11.57;10.88;;;;;;;;;;4996491;28;20030;-59
2023/01/27 13:45:41;;;;;;;9.95;9.35;;;;;;;;;;4997787;28;20484;-60
2023/01/27 13:48:33;;;;;;;11.05;10.35;;;;;;;;;;5005282;28;20050;-60
2023/01/27 13:51:16;;;;;;;9.75;9.15;;;;;;;;;;4996489;28;20048;-60
2023/01/27 13:53:43;;;;;;;11.77;11.07;;;;;;;;;;5001120;28;20119;-49
2023/01/27 13:56:18;;;;;;;9.73;9.13;;;;;;;;;;4996095;28;20888;-51
2023/01/27 13:58:59;;;;;;;9.98;9.38;;;;;;;;;;4996694;28;20033;-59
2023/01/27 14:01:41;;;;;;;9.90;9.30;;;;;;;;;;4996724;28;20602;-60
2023/01/27 14:04:19;;;;;;;9.68;9.07;;;;;;;;;;4996979;28;20037;-52
2023/01/27 14:07:11;;;;;;;9.88;9.27;;;;;;;;;;4997535;28;20045;-51
2023/01/27 14:10:00;;;;;;;9.23;8.63;;;;;;;;;;4996092;28;20066;-47
2023/01/27 14:12:43;;;;;;;9.52;8.93;;;;;;;;;;4996409;28;20116;-49
2023/01/27 14:15:17;;;;;;;9.55;8.95;;;;;;;;;;4980824;28;20046;-59
2023/01/27 14:17:51;;;;;;;9.55;8.95;;;;;;;;;;4996683;28;20030;-48
2023/01/27 14:20:40;;;;;;;9.32;8.73;;;;;;;;;;5013490;28;20062;-49
2023/01/27 14:23:20;;;;;;;9.15;8.55;;;;;;;;;;4997540;28;20038;-51
2023/01/27 14:25:57;;;;;;;10.95;10.27;;;;;;;;;;4994932;28;20026;-50
2023/01/27 14:28:23;;;;;;;9.27;8.68;;;;;;;;;;4999233;28;20405;-53
2023/01/27 14:30:58;;;;;;;9.55;8.95;;;;;;;;;;4998448;28;20049;-50
2023/01/27 14:33:48;;;;;;;10.25;9.65;;;;;;;;;;4996053;28;20045;-59
2023/01/27 14:36:25;;;;;;;9.52;8.93;;;;;;;;;;4999365;28;20435;-59
2023/01/27 14:39:16;;;;;;;9.70;9.10;;;;;;;;;;4994486;28;20419;-49
2023/01/27 14:41:53;;;;;;;9.47;8.87;;;;;;;;;;4997453;28;20637;-49
2023/01/27 14:44:36;;;;;;;9.38;8.77;;;;;;;;;;4997039;28;20034;-47
2023/01/27 14:47:22;;;;;;;10.65;9.95;;;;;;;;;;4995729;28;20071;-51
2023/01/27 14:50:02;;;;;;;10.35;9.65;;;;;;;;;;4993789;28;20592;-48
2023/01/27 14:52:33;;;;;;;9.77;9.18;;;;;;;;;;4999646;28;20034;-48
2023/01/27 14:55:17;;;;;;;9.50;8.90;;;;;;;;;;4999866;28;20065;-52
2023/01/27 14:57:52;;;;;;;10.00;9.40;;;;;;;;;;4997011;28;20037;-51
2023/01/27 15:00:23;;;;;;;9.60;9.00;;;;;;;;;;4998500;28;20622;-50
2023/01/27 15:03:20;;;;;;;8.95;8.35;;;;;;;;;;4996751;28;20036;-48
2023/01/27 15:05:56;;;;;;;9.23;8.63;;;;;;;;;;4996347;28;20069;-50
2023/01/27 15:08:45;;;;;;;10.10;9.50;;;;;;;;;;4997903;28;20054;-50
2023/01/27 15:11:38;;;;;;;9.40;8.80;;;;;;;;;;4995869;28;20038;-49
2023/01/27 15:14:15;;;;;;;9.32;8.73;;;;;;;;;;4995890;28;20042;-48
2023/01/27 15:16:56;;;;;;;9.88;9.27;;;;;;;;;;4996603;28;20321;-52
2023/01/27 15:19:33;;;;;;;9.85;9.25;;;;;;;;;;4998852;28;20042;-60